PWSweather.com
Personal Weather Stations
Station Observations
PICKERING
North Yorkshire, PickeringGB

North YorkshirePickeringGB

Lat: 54.2494, Lon: -0.7725

Elevation: 192

Station Type: Oregon Scientific WMR100

http://www.yorkshirewalker.co.uk/weather/

High Low Average
Temperature 59.7°F15.4°F 44.4°F6.9°F 49.3°F9.6°F
Dew Point 44.6°F7.0°F 37.4°F3.0°F 40.9°F4.9°F
Winds 9.3 mph WSW15.0 mph WSW Calm Calm 2.9 mph 4.7 mph
Wind Gusts 13.2 mph21.2 mph -- 5.1 mph8.2 mph
Humidity 81% 57% 72%
Pressure 29.89 in1012.20 in 29.68 in1005.10 in -
Precipitation 5.58 in141.70 in - -
Hour Temp Dew Point Humidity Winds Wind Gusts Pressure Precip Precip Rate Daily Precip Total
12:00 AM 51.1°F10.6°C 41.0°F5.0°C 69% 9.0 mph W14.5 kmh W 12.5 mph20.1 kmh 29.83 in1010.2 mb 0.00 in0.0 mm 0.00 in0.0 mm 0.00 in0.0 mm
12:05 AM 50.9°F10.5°C 41.0°F5.0°C 69% 8.1 mph WSW13.0 kmh WSW 13.2 mph21.2 kmh 29.83 in1010.2 mb 0.00 in0.0 mm 0.00 in0.0 mm 0.00 in0.0 mm
12:10 AM 50.5°F10.3°C 41.0°F5.0°C 69% 6.7 mph WSW10.8 kmh WSW 13.2 mph21.2 kmh 29.83 in1010.2 mb 0.00 in0.0 mm 0.00 in0.0 mm 0.00 in0.0 mm
12:15 AM 50.4°F10.2°C 41.0°F5.0°C 69% 5.7 mph WSW9.2 kmh WSW 8.1 mph13.0 kmh 29.83 in1010.2 mb 0.00 in0.0 mm 0.00 in0.0 mm 0.00 in0.0 mm
12:20 AM 50.4°F10.2°C 41.0°F5.0°C 68% 7.0 mph WSW11.3 kmh WSW 10.1 mph16.3 kmh 29.83 in1010.2 mb 0.00 in0.0 mm 0.00 in0.0 mm 0.00 in0.0 mm
12:25 AM 50.0°F10.0°C 39.2°F4.0°C 68% 6.9 mph WSW11.1 kmh WSW 10.1 mph16.3 kmh 29.83 in1010.2 mb 0.00 in0.0 mm 0.00 in0.0 mm 0.00 in0.0 mm
12:30 AM 50.0°F10.0°C 39.2°F4.0°C 67% 5.6 mph WSW9.0 kmh WSW 9.8 mph15.8 kmh 29.83 in1010.2 mb 0.00 in0.0 mm 0.00 in0.0 mm 0.00 in0.0 mm
12:35 AM 49.8°F9.9°C 39.2°F4.0°C 67% 5.1 mph WSW8.2 kmh WSW 9.8 mph15.8 kmh 29.83 in1010.2 mb 0.00 in0.0 mm 0.00 in0.0 mm 0.00 in0.0 mm
12:40 AM 49.6°F9.8°C 39.2°F4.0°C 67% 4.4 mph WSW7.1 kmh WSW 6.3 mph10.1 kmh 29.83 in1010.2 mb 0.00 in0.0 mm 0.00 in0.0 mm 0.00 in0.0 mm
12:45 AM 49.5°F9.7°C 39.2°F4.0°C 67% 5.5 mph WSW8.9 kmh WSW 9.4 mph15.1 kmh 29.83 in1010.2 mb 0.00 in0.0 mm 0.00 in0.0 mm 0.00 in0.0 mm
12:50 AM 49.5°F9.7°C 39.2°F4.0°C 67% 6.4 mph WSW10.3 kmh WSW 10.3 mph16.6 kmh 29.83 in1010.2 mb 0.00 in0.0 mm 0.00 in0.0 mm 0.00 in0.0 mm
12:55 AM 49.3°F9.6°C 39.2°F4.0°C 67% 6.1 mph WSW9.8 kmh WSW 10.3 mph16.6 kmh 29.83 in1010.2 mb 0.00 in0.0 mm 0.00 in0.0 mm 0.00 in0.0 mm
01:00 AM 49.3°F9.6°C 37.4°F3.0°C 66% 6.1 mph WSW9.8 kmh WSW 9.6 mph15.4 kmh 29.83 in1010.2 mb 0.00 in0.0 mm 0.00 in0.0 mm 0.00 in0.0 mm
01:05 AM 48.9°F9.4°C 37.4°F3.0°C 66% 5.6 mph WSW9.0 kmh WSW 9.6 mph15.4 kmh 29.83 in1010.2 mb 0.00 in0.0 mm 0.00 in0.0 mm 0.00 in0.0 mm
01:10 AM 48.7°F9.3°C 37.4°F3.0°C 67% 4.9 mph WSW7.9 kmh WSW 8.1 mph13.0 kmh 29.83 in1010.2 mb 0.00 in0.0 mm 0.00 in0.0 mm 0.00 in0.0 mm
01:15 AM 48.6°F9.2°C 37.4°F3.0°C 67% 4.7 mph WSW7.6 kmh WSW 7.4 mph11.9 kmh 29.83 in1010.2 mb 0.00 in0.0 mm 0.00 in0.0 mm 0.00 in0.0 mm
01:20 AM 48.6°F9.2°C 37.4°F3.0°C 67% 4.9 mph WSW7.9 kmh WSW 7.4 mph11.9 kmh 29.83 in1010.2 mb 0.00 in0.0 mm 0.00 in0.0 mm 0.00 in0.0 mm
01:25 AM 48.6°F9.2°C 37.4°F3.0°C 67% 5.9 mph WSW9.5 kmh WSW 7.6 mph12.2 kmh 29.83 in1010.2 mb 0.00 in0.0 mm 0.00 in0.0 mm 0.00 in0.0 mm
01:30 AM 48.4°F9.1°C 37.4°F3.0°C 67% 5.2 mph WSW8.4 kmh WSW 7.6 mph12.2 kmh 29.83 in1010.2 mb 0.00 in0.0 mm 0.00 in0.0 mm 0.00 in0.0 mm
01:35 AM 48.2°F9.0°C 37.4°F3.0°C 67% 4.0 mph WSW6.4 kmh WSW 4.7 mph7.6 kmh 29.83 in1010.2 mb 0.00 in0.0 mm 0.00 in0.0 mm 0.00 in0.0 mm
01:40 AM 48.0°F8.9°C 37.4°F3.0°C 67% 4.0 mph WSW6.4 kmh WSW 6.0 mph9.7 kmh 29.83 in1010.2 mb 0.00 in0.0 mm 0.00 in0.0 mm 0.00 in0.0 mm
01:45 AM 47.7°F8.7°C 37.4°F3.0°C 67% 2.6 mph WSW4.2 kmh WSW 6.0 mph9.7 kmh 29.83 in1010.2 mb 0.00 in0.0 mm 0.00 in0.0 mm 0.00 in0.0 mm
01:50 AM 47.5°F8.6°C 37.4°F3.0°C 67% 1.5 mph SW2.4 kmh SW 4.9 mph7.9 kmh 29.83 in1010.2 mb 0.00 in0.0 mm 0.00 in0.0 mm 0.00 in0.0 mm
01:55 AM 47.3°F8.5°C 37.4°F3.0°C 67% 1.6 mph SSW2.6 kmh SSW 4.7 mph7.6 kmh 29.83 in1010.2 mb 0.00 in0.0 mm 0.00 in0.0 mm 0.00 in0.0 mm
02:00 AM 47.3°F8.5°C 37.4°F3.0°C 68% 1.8 mph S2.9 kmh S 4.7 mph7.6 kmh 29.83 in1010.2 mb 0.00 in0.0 mm 0.00 in0.0 mm 0.00 in0.0 mm
02:05 AM 47.1°F8.4°C 37.4°F3.0°C 67% 1.6 mph SSW2.6 kmh SSW 4.5 mph7.2 kmh 29.83 in1010.2 mb 0.00 in0.0 mm 0.00 in0.0 mm 0.00 in0.0 mm
02:10 AM 47.1°F8.4°C 37.4°F3.0°C 68% 1.6 mph SSW2.6 kmh SSW 4.5 mph7.2 kmh 29.83 in1010.2 mb 0.00 in0.0 mm 0.00 in0.0 mm 0.00 in0.0 mm
02:15 AM 46.9°F8.3°C 37.4°F3.0°C 68% 1.6 mph S2.6 kmh S 2.9 mph4.7 kmh 29.83 in1010.2 mb 0.00 in0.0 mm 0.00 in0.0 mm 0.00 in0.0 mm
02:20 AM 46.9°F8.3°C 37.4°F3.0°C 68% 1.9 mph SSW3.1 kmh SSW 2.9 mph4.7 kmh 29.83 in1010.2 mb 0.00 in0.0 mm 0.00 in0.0 mm 0.00 in0.0 mm
02:25 AM 46.9°F8.3°C 37.4°F3.0°C 67% 2.3 mph S3.7 kmh S 3.1 mph5.0 kmh 29.83 in1010.2 mb 0.00 in0.0 mm 0.00 in0.0 mm 0.00 in0.0 mm
02:30 AM 46.9°F8.3°C 37.4°F3.0°C 67% 2.1 mph SSW3.4 kmh SSW 3.4 mph5.5 kmh 29.83 in1010.2 mb 0.00 in0.0 mm 0.00 in0.0 mm 0.00 in0.0 mm
02:35 AM 46.9°F8.3°C 37.4°F3.0°C 67% 1.7 mph SW2.7 kmh SW 3.4 mph5.5 kmh 29.83 in1010.2 mb 0.00 in0.0 mm 0.00 in0.0 mm 0.00 in0.0 mm
02:40 AM 46.9°F8.3°C 37.4°F3.0°C 67% 2.3 mph SSW3.7 kmh SSW 4.9 mph7.9 kmh 29.83 in1010.2 mb 0.00 in0.0 mm 0.00 in0.0 mm 0.00 in0.0 mm
02:45 AM 46.8°F8.2°C 37.4°F3.0°C 68% 1.6 mph SSW2.6 kmh SSW 4.9 mph7.9 kmh 29.83 in1010.2 mb 0.00 in0.0 mm 0.00 in0.0 mm 0.00 in0.0 mm
02:50 AM 46.8°F8.2°C 37.4°F3.0°C 68% 1.4 mph SSW2.3 kmh SSW 4.0 mph6.4 kmh 29.83 in1010.2 mb 0.00 in0.0 mm 0.00 in0.0 mm 0.00 in0.0 mm
02:55 AM 46.8°F8.2°C 37.4°F3.0°C 68% 2.3 mph S3.7 kmh S 4.0 mph6.4 kmh 29.83 in1010.2 mb 0.00 in0.0 mm 0.00 in0.0 mm 0.00 in0.0 mm
03:00 AM 46.8°F8.2°C 37.4°F3.0°C 68% 2.8 mph S4.5 kmh S 4.3 mph6.9 kmh 29.83 in1010.2 mb 0.00 in0.0 mm 0.00 in0.0 mm 0.00 in0.0 mm
03:05 AM 46.8°F8.2°C 37.4°F3.0°C 68% 3.2 mph SSW5.1 kmh SSW 4.3 mph6.9 kmh 29.83 in1010.2 mb 0.00 in0.0 mm 0.00 in0.0 mm 0.00 in0.0 mm
03:10 AM 46.9°F8.3°C 37.4°F3.0°C 69% 3.6 mph SSW5.8 kmh SSW 6.3 mph10.1 kmh 29.83 in1010.2 mb 0.00 in0.0 mm 0.00 in0.0 mm 0.00 in0.0 mm
03:15 AM 46.9°F8.3°C 37.4°F3.0°C 69% 3.1 mph SSW5.0 kmh SSW 6.3 mph10.1 kmh 29.83 in1010.2 mb 0.00 in0.0 mm 0.00 in0.0 mm 0.00 in0.0 mm
03:20 AM 46.9°F8.3°C 37.4°F3.0°C 69% 2.4 mph SSW3.9 kmh SSW 6.3 mph10.1 kmh 29.83 in1010.2 mb 0.00 in0.0 mm 0.00 in0.0 mm 0.00 in0.0 mm
03:25 AM 46.9°F8.3°C 37.4°F3.0°C 69% 2.0 mph S3.2 kmh S 3.6 mph5.8 kmh 29.83 in1010.2 mb 0.00 in0.0 mm 0.00 in0.0 mm 0.00 in0.0 mm
03:30 AM 46.9°F8.3°C 37.4°F3.0°C 69% 1.6 mph S2.6 kmh S 3.6 mph5.8 kmh 29.83 in1010.2 mb 0.00 in0.0 mm 0.00 in0.0 mm 0.00 in0.0 mm
03:35 AM 47.1°F8.4°C 37.4°F3.0°C 69% 1.2 mph S1.9 kmh S 3.8 mph6.1 kmh 29.83 in1010.2 mb 0.00 in0.0 mm 0.00 in0.0 mm 0.00 in0.0 mm
03:40 AM 47.1°F8.4°C 37.4°F3.0°C 69% 1.5 mph S2.4 kmh S 3.8 mph6.1 kmh 29.83 in1010.2 mb 0.00 in0.0 mm 0.00 in0.0 mm 0.00 in0.0 mm
03:45 AM 47.1°F8.4°C 37.4°F3.0°C 69% 2.1 mph S3.4 kmh S 2.9 mph4.7 kmh 29.83 in1010.2 mb 0.00 in0.0 mm 0.00 in0.0 mm 0.00 in0.0 mm
03:50 AM 47.1°F8.4°C 37.4°F3.0°C 70% 2.2 mph SSW3.5 kmh SSW 3.1 mph5.0 kmh 29.83 in1010.2 mb 0.00 in0.0 mm 0.00 in0.0 mm 0.00 in0.0 mm
03:55 AM 47.1°F8.4°C 37.4°F3.0°C 70% 1.8 mph SW2.9 kmh SW 3.8 mph6.1 kmh 29.83 in1010.2 mb 0.00 in0.0 mm 0.00 in0.0 mm 0.00 in0.0 mm
04:00 AM 47.3°F8.5°C 37.4°F3.0°C 70% 2.0 mph SW3.2 kmh SW 3.8 mph6.1 kmh 29.83 in1010.2 mb 0.00 in0.0 mm 0.00 in0.0 mm 0.00 in0.0 mm
04:05 AM 47.5°F8.6°C 37.4°F3.0°C 70% 3.1 mph WSW5.0 kmh WSW 8.1 mph13.0 kmh 29.83 in1010.2 mb 0.00 in0.0 mm 0.00 in0.0 mm 0.00 in0.0 mm
04:10 AM 47.7°F8.7°C 39.2°F4.0°C 70% 3.3 mph WSW5.3 kmh WSW 8.1 mph13.0 kmh 29.83 in1010.2 mb 0.00 in0.0 mm 0.00 in0.0 mm 0.00 in0.0 mm
04:15 AM 47.7°F8.7°C 39.2°F4.0°C 70% 3.5 mph WSW5.6 kmh WSW 7.6 mph12.2 kmh 29.83 in1010.2 mb 0.00 in0.0 mm 0.00 in0.0 mm 0.00 in0.0 mm
04:20 AM 47.7°F8.7°C 39.2°F4.0°C 70% 4.4 mph WSW7.1 kmh WSW 7.6 mph12.2 kmh 29.83 in1010.2 mb 0.00 in0.0 mm 0.00 in0.0 mm 0.00 in0.0 mm
04:25 AM 47.7°F8.7°C 39.2°F4.0°C 70% 3.8 mph WSW6.1 kmh WSW 7.4 mph11.9 kmh 29.83 in1010.2 mb 0.00 in0.0 mm 0.00 in0.0 mm 0.00 in0.0 mm
04:30 AM 47.8°F8.8°C 39.2°F4.0°C 71% 4.0 mph WSW6.4 kmh WSW 6.0 mph9.7 kmh 29.83 in1010.2 mb 0.00 in0.0 mm 0.00 in0.0 mm 0.00 in0.0 mm
04:35 AM 47.8°F8.8°C 39.2°F4.0°C 71% 4.0 mph WSW6.4 kmh WSW 6.0 mph9.7 kmh 29.83 in1010.2 mb 0.00 in0.0 mm 0.00 in0.0 mm 0.00 in0.0 mm
04:40 AM 47.8°F8.8°C 39.2°F4.0°C 71% 3.9 mph WSW6.3 kmh WSW 6.5 mph10.5 kmh 29.83 in1010.2 mb 0.00 in0.0 mm 0.00 in0.0 mm 0.00 in0.0 mm
04:45 AM 47.8°F8.8°C 39.2°F4.0°C 71% 3.6 mph WSW5.8 kmh WSW 6.5 mph10.5 kmh 29.83 in1010.2 mb 0.00 in0.0 mm 0.00 in0.0 mm 0.00 in0.0 mm
04:50 AM 47.7°F8.7°C 39.2°F4.0°C 71% 3.1 mph WSW5.0 kmh WSW 5.4 mph8.7 kmh 29.83 in1010.2 mb 0.00 in0.0 mm 0.00 in0.0 mm 0.00 in0.0 mm
04:55 AM 47.7°F8.7°C 39.2°F4.0°C 71% 3.3 mph WSW5.3 kmh WSW 4.7 mph7.6 kmh 29.83 in1010.2 mb 0.00 in0.0 mm 0.00 in0.0 mm 0.00 in0.0 mm
05:00 AM 47.7°F8.7°C 39.2°F4.0°C 71% 3.8 mph WSW6.1 kmh WSW 5.6 mph9.0 kmh 29.83 in1010.2 mb 0.00 in0.0 mm 0.00 in0.0 mm 0.00 in0.0 mm
05:05 AM 47.7°F8.7°C 39.2°F4.0°C 72% 4.1 mph WSW6.6 kmh WSW 5.6 mph9.0 kmh 29.83 in1010.2 mb 0.00 in0.0 mm 0.00 in0.0 mm 0.00 in0.0 mm
05:10 AM 47.7°F8.7°C 39.2°F4.0°C 72% 4.3 mph WSW6.9 kmh WSW 6.0 mph9.7 kmh 29.83 in1010.2 mb 0.00 in0.0 mm 0.00 in0.0 mm 0.00 in0.0 mm
05:15 AM 47.7°F8.7°C 39.2°F4.0°C 72% 4.6 mph WSW7.4 kmh WSW 6.0 mph9.7 kmh 29.83 in1010.2 mb 0.00 in0.0 mm 0.00 in0.0 mm 0.00 in0.0 mm
05:20 AM 47.8°F8.8°C 39.2°F4.0°C 72% 4.8 mph WSW7.7 kmh WSW 6.5 mph10.5 kmh 29.83 in1010.2 mb 0.00 in0.0 mm 0.00 in0.0 mm 0.00 in0.0 mm
05:25 AM 48.0°F8.9°C 39.2°F4.0°C 71% 5.6 mph WSW9.0 kmh WSW 8.1 mph13.0 kmh 29.83 in1010.2 mb 0.00 in0.0 mm 0.00 in0.0 mm 0.00 in0.0 mm
05:30 AM 48.2°F9.0°C 39.2°F4.0°C 71% 5.8 mph WSW9.3 kmh WSW 8.7 mph14.0 kmh 29.83 in1010.2 mb 0.00 in0.0 mm 0.00 in0.0 mm 0.00 in0.0 mm
05:35 AM 48.2°F9.0°C 39.2°F4.0°C 71% 5.4 mph W8.7 kmh W 10.7 mph17.2 kmh 29.83 in1010.2 mb 0.00 in0.0 mm 0.00 in0.0 mm 0.00 in0.0 mm
05:40 AM 48.4°F9.1°C 39.2°F4.0°C 70% 5.5 mph W8.9 kmh W 10.7 mph17.2 kmh 29.83 in1010.2 mb 0.00 in0.0 mm 0.00 in0.0 mm 0.00 in0.0 mm
05:45 AM 48.4°F9.1°C 39.2°F4.0°C 70% 5.7 mph WSW9.2 kmh WSW 12.3 mph19.8 kmh 29.83 in1010.2 mb 0.00 in0.0 mm 0.00 in0.0 mm 0.00 in0.0 mm
05:50 AM 48.6°F9.2°C 39.2°F4.0°C 70% 6.4 mph WSW10.3 kmh WSW 12.3 mph19.8 kmh 29.83 in1010.2 mb 0.00 in0.0 mm 0.00 in0.0 mm 0.00 in0.0 mm
05:55 AM 48.6°F9.2°C 39.2°F4.0°C 69% 6.2 mph WSW10.0 kmh WSW 9.8 mph15.8 kmh 29.83 in1010.2 mb 0.00 in0.0 mm 0.00 in0.0 mm 0.00 in0.0 mm
06:00 AM 48.6°F9.2°C 39.2°F4.0°C 69% 4.9 mph WSW7.9 kmh WSW 7.8 mph12.6 kmh 29.83 in1010.2 mb 0.00 in0.0 mm 0.00 in0.0 mm 0.00 in0.0 mm
06:05 AM 48.6°F9.2°C 39.2°F4.0°C 69% 4.5 mph WSW7.2 kmh WSW 6.3 mph10.1 kmh 29.83 in1010.2 mb 0.00 in0.0 mm 0.00 in0.0 mm 0.00 in0.0 mm
06:10 AM 48.4°F9.1°C 39.2°F4.0°C 69% 4.3 mph SW6.9 kmh SW 6.3 mph10.1 kmh 29.83 in1010.2 mb 0.00 in0.0 mm 0.00 in0.0 mm 0.00 in0.0 mm
06:15 AM 48.4°F9.1°C 39.2°F4.0°C 69% 3.7 mph WSW6.0 kmh WSW 6.3 mph10.1 kmh 29.83 in1010.2 mb 0.00 in0.0 mm 0.00 in0.0 mm 0.00 in0.0 mm
06:20 AM 48.7°F9.3°C 39.2°F4.0°C 69% 5.2 mph WSW8.4 kmh WSW 8.5 mph13.7 kmh 29.83 in1010.2 mb 0.00 in0.0 mm 0.00 in0.0 mm 0.00 in0.0 mm
06:25 AM 48.9°F9.4°C 39.2°F4.0°C 69% 6.2 mph WSW10.0 kmh WSW 8.5 mph13.7 kmh 29.83 in1010.2 mb 0.00 in0.0 mm 0.00 in0.0 mm 0.00 in0.0 mm
06:30 AM 48.9°F9.4°C 39.2°F4.0°C 69% 6.0 mph WSW9.7 kmh WSW 10.1 mph16.3 kmh 29.83 in1010.2 mb 0.00 in0.0 mm 0.00 in0.0 mm 0.00 in0.0 mm
06:35 AM 49.1°F9.5°C 39.2°F4.0°C 69% 5.8 mph WSW9.3 kmh WSW 10.1 mph16.3 kmh 29.86 in1011.2 mb 0.00 in0.0 mm 0.00 in0.0 mm 0.00 in0.0 mm
06:40 AM 49.3°F9.6°C 39.2°F4.0°C 68% 6.4 mph WSW10.3 kmh WSW 10.1 mph16.3 kmh 29.86 in1011.2 mb 0.00 in0.0 mm 0.00 in0.0 mm 0.00 in0.0 mm
06:45 AM 49.5°F9.7°C 39.2°F4.0°C 68% 7.4 mph WSW11.9 kmh WSW 13.0 mph20.9 kmh 29.86 in1011.2 mb 0.00 in0.0 mm 0.00 in0.0 mm 0.00 in0.0 mm
06:50 AM 49.6°F9.8°C 39.2°F4.0°C 68% 7.2 mph WSW11.6 kmh WSW 13.0 mph20.9 kmh 29.86 in1011.2 mb 0.00 in0.0 mm 0.00 in0.0 mm 0.00 in0.0 mm
06:55 AM 49.8°F9.9°C 39.2°F4.0°C 68% 5.3 mph WSW8.5 kmh WSW 8.7 mph14.0 kmh 29.86 in1011.2 mb 0.00 in0.0 mm 0.00 in0.0 mm 0.00 in0.0 mm
07:00 AM 50.0°F10.0°C 39.2°F4.0°C 68% 4.8 mph WSW7.7 kmh WSW 7.8 mph12.6 kmh 29.86 in1011.2 mb 0.00 in0.0 mm 0.00 in0.0 mm 0.00 in0.0 mm
07:05 AM 50.0°F10.0°C 39.2°F4.0°C 68% 5.0 mph WSW8.0 kmh WSW 7.8 mph12.6 kmh 29.86 in1011.2 mb 0.00 in0.0 mm 0.00 in0.0 mm 0.00 in0.0 mm
07:10 AM 50.2°F10.1°C 41.0°F5.0°C 68% 5.6 mph WSW9.0 kmh WSW 8.7 mph14.0 kmh 29.86 in1011.2 mb 0.00 in0.0 mm 0.00 in0.0 mm 0.00 in0.0 mm
07:15 AM 50.4°F10.2°C 41.0°F5.0°C 68% 5.1 mph WSW8.2 kmh WSW 8.7 mph14.0 kmh 29.86 in1011.2 mb 0.00 in0.0 mm 0.00 in0.0 mm 0.00 in0.0 mm
07:20 AM 50.5°F10.3°C 41.0°F5.0°C 68% 3.6 mph WSW5.8 kmh WSW 5.6 mph9.0 kmh 29.89 in1012.2 mb 0.00 in0.0 mm 0.00 in0.0 mm 0.00 in0.0 mm
07:25 AM 50.7°F10.4°C 41.0°F5.0°C 67% 4.1 mph SW6.6 kmh SW 6.5 mph10.5 kmh 29.89 in1012.2 mb 0.00 in0.0 mm 0.00 in0.0 mm 0.00 in0.0 mm
07:30 AM 50.7°F10.4°C 41.0°F5.0°C 67% 4.4 mph SW7.1 kmh SW 6.5 mph10.5 kmh 29.89 in1012.2 mb 0.00 in0.0 mm 0.00 in0.0 mm 0.00 in0.0 mm
07:35 AM 50.9°F10.5°C 41.0°F5.0°C 67% 3.9 mph WSW6.3 kmh WSW 4.9 mph7.9 kmh 29.89 in1012.2 mb 0.00 in0.0 mm 0.00 in0.0 mm 0.00 in0.0 mm
07:40 AM 51.1°F10.6°C 39.2°F4.0°C 66% 4.8 mph WSW7.7 kmh WSW 7.8 mph12.6 kmh 29.89 in1012.2 mb 0.00 in0.0 mm 0.00 in0.0 mm 0.00 in0.0 mm
07:45 AM 51.1°F10.6°C 39.2°F4.0°C 66% 6.3 mph WSW10.1 kmh WSW 10.1 mph16.3 kmh 29.89 in1012.2 mb 0.00 in0.0 mm 0.00 in0.0 mm 0.00 in0.0 mm
07:50 AM 51.3°F10.7°C 41.0°F5.0°C 66% 7.7 mph WSW12.4 kmh WSW 12.5 mph20.1 kmh 29.86 in1011.2 mb 0.00 in0.0 mm 0.00 in0.0 mm 0.00 in0.0 mm
07:55 AM 51.3°F10.7°C 41.0°F5.0°C 65% 8.0 mph WSW12.9 kmh WSW 12.5 mph20.1 kmh 29.86 in1011.2 mb 0.00 in0.0 mm 0.00 in0.0 mm 0.00 in0.0 mm
08:00 AM 51.3°F10.7°C 41.0°F5.0°C 65% 7.0 mph W11.3 kmh W 10.3 mph16.6 kmh 29.86 in1011.2 mb 0.00 in0.0 mm 0.00 in0.0 mm 0.00 in0.0 mm
08:05 AM 51.4°F10.8°C 41.0°F5.0°C 65% 6.6 mph WSW10.6 kmh WSW 10.3 mph16.6 kmh 29.86 in1011.2 mb 0.00 in0.0 mm 0.00 in0.0 mm 0.00 in0.0 mm
08:10 AM 51.6°F10.9°C 41.0°F5.0°C 66% 6.9 mph WSW11.1 kmh WSW 11.9 mph19.2 kmh 29.86 in1011.2 mb 0.00 in0.0 mm 0.00 in0.0 mm 0.00 in0.0 mm
08:15 AM 51.8°F11.0°C 41.0°F5.0°C 65% 6.2 mph WSW10.0 kmh WSW 11.9 mph19.2 kmh 29.86 in1011.2 mb 0.00 in0.0 mm 0.00 in0.0 mm 0.00 in0.0 mm
08:20 AM 52.2°F11.2°C 41.0°F5.0°C 65% 5.0 mph WSW8.0 kmh WSW 8.5 mph13.7 kmh 29.86 in1011.2 mb 0.00 in0.0 mm 0.00 in0.0 mm 0.00 in0.0 mm
08:25 AM 52.5°F11.4°C 41.0°F5.0°C 66% 4.0 mph WSW6.4 kmh WSW 6.5 mph10.5 kmh 29.86 in1011.2 mb 0.00 in0.0 mm 0.00 in0.0 mm 0.00 in0.0 mm
08:30 AM 52.7°F11.5°C 41.0°F5.0°C 66% 3.2 mph WSW5.1 kmh WSW 4.3 mph6.9 kmh 29.86 in1011.2 mb 0.00 in0.0 mm 0.00 in0.0 mm 0.00 in0.0 mm
08:35 AM 52.9°F11.6°C 41.0°F5.0°C 65% 4.7 mph SW7.6 kmh SW 7.6 mph12.2 kmh 29.89 in1012.2 mb 0.00 in0.0 mm 0.00 in0.0 mm 0.00 in0.0 mm
08:40 AM 53.2°F11.8°C 42.8°F6.0°C 65% 4.3 mph SW6.9 kmh SW 7.6 mph12.2 kmh 29.89 in1012.2 mb 0.00 in0.0 mm 0.00 in0.0 mm 0.00 in0.0 mm
08:45 AM 53.4°F11.9°C 42.8°F6.0°C 65% 3.1 mph SW5.0 kmh SW 7.6 mph12.2 kmh 29.89 in1012.2 mb 0.00 in0.0 mm 0.00 in0.0 mm 0.00 in0.0 mm
08:50 AM 53.4°F11.9°C 42.8°F6.0°C 65% 4.2 mph SW6.8 kmh SW 9.6 mph15.4 kmh 29.89 in1012.2 mb 0.00 in0.0 mm 0.00 in0.0 mm 0.00 in0.0 mm
08:55 AM 53.4°F11.9°C 42.8°F6.0°C 65% 5.3 mph SSW8.5 kmh SSW 10.5 mph16.9 kmh 29.89 in1012.2 mb 0.00 in0.0 mm 0.00 in0.0 mm 0.00 in0.0 mm
09:00 AM 53.6°F12.0°C 42.8°F6.0°C 65% 3.5 mph S5.6 kmh S 10.5 mph16.9 kmh 29.89 in1012.2 mb 0.00 in0.0 mm 0.00 in0.0 mm 0.00 in0.0 mm
09:05 AM 53.8°F12.1°C 42.8°F6.0°C 65% 2.4 mph WSW3.9 kmh WSW 5.8 mph9.3 kmh 29.89 in1012.2 mb 0.00 in0.0 mm 0.00 in0.0 mm 0.00 in0.0 mm
09:10 AM 54.1°F12.3°C 42.8°F6.0°C 65% 2.7 mph WSW4.3 kmh WSW 5.8 mph9.3 kmh 29.89 in1012.2 mb 0.00 in0.0 mm 0.00 in0.0 mm 0.00 in0.0 mm
09:15 AM 54.0°F12.2°C 42.8°F6.0°C 65% 3.3 mph WSW5.3 kmh WSW 6.0 mph9.7 kmh 29.89 in1012.2 mb 0.00 in0.0 mm 0.00 in0.0 mm 0.00 in0.0 mm
09:20 AM 53.8°F12.1°C 42.8°F6.0°C 65% 3.7 mph WSW6.0 kmh WSW 6.0 mph9.7 kmh 29.89 in1012.2 mb 0.00 in0.0 mm 0.00 in0.0 mm 0.00 in0.0 mm
09:25 AM 54.0°F12.2°C 42.8°F6.0°C 65% 3.8 mph WSW6.1 kmh WSW 6.0 mph9.7 kmh 29.89 in1012.2 mb 0.00 in0.0 mm 0.00 in0.0 mm 0.00 in0.0 mm
09:30 AM 55.0°F12.8°C 42.8°F6.0°C 64% 4.1 mph WSW6.6 kmh WSW 6.3 mph10.1 kmh 29.89 in1012.2 mb 0.00 in0.0 mm 0.00 in0.0 mm 0.00 in0.0 mm
09:35 AM 55.9°F13.3°C 44.6°F7.0°C 64% 5.0 mph WSW8.0 kmh WSW 7.8 mph12.6 kmh 29.89 in1012.2 mb 0.00 in0.0 mm 0.00 in0.0 mm 0.00 in0.0 mm
09:40 AM 57.6°F14.2°C 44.6°F7.0°C 63% 5.0 mph WSW8.0 kmh WSW 7.8 mph12.6 kmh 29.89 in1012.2 mb 0.00 in0.0 mm 0.00 in0.0 mm 0.00 in0.0 mm
09:45 AM 58.8°F14.9°C 44.6°F7.0°C 61% 6.2 mph WSW10.0 kmh WSW 10.3 mph16.6 kmh 29.89 in1012.2 mb 0.00 in0.0 mm 0.00 in0.0 mm 0.00 in0.0 mm
09:50 AM 59.4°F15.2°C 44.6°F7.0°C 59% 8.4 mph WSW13.5 kmh WSW 11.0 mph17.7 kmh 29.89 in1012.2 mb 0.00 in0.0 mm 0.00 in0.0 mm 0.00 in0.0 mm
09:55 AM 59.7°F15.4°C 44.6°F7.0°C 58% 9.3 mph WSW15.0 kmh WSW 11.9 mph19.2 kmh 29.89 in1012.2 mb 0.00 in0.0 mm 0.00 in0.0 mm 0.00 in0.0 mm
10:00 AM 59.4°F15.2°C 44.6°F7.0°C 57% 9.3 mph WSW15.0 kmh WSW 12.3 mph19.8 kmh 29.89 in1012.2 mb 0.00 in0.0 mm 0.00 in0.0 mm 0.00 in0.0 mm
02:35 PM 52.5°F11.4°C 42.8°F6.0°C 71% 3.3 mph WSW5.3 kmh WSW 5.6 mph9.0 kmh 29.83 in1010.2 mb 0.00 in0.0 mm 0.00 in0.0 mm 0.00 in0.0 mm
02:40 PM 52.3°F11.3°C 42.8°F6.0°C 70% 2.8 mph WSW4.5 kmh WSW 5.6 mph9.0 kmh 29.83 in1010.2 mb 0.00 in0.0 mm 0.00 in0.0 mm 0.00 in0.0 mm
02:45 PM 52.3°F11.3°C 42.8°F6.0°C 71% 2.2 mph SW3.5 kmh SW 3.4 mph5.5 kmh 29.83 in1010.2 mb 0.00 in0.0 mm 0.00 in0.0 mm 0.00 in0.0 mm
02:50 PM 52.2°F11.2°C 42.8°F6.0°C 71% 2.0 mph WSW3.2 kmh WSW 3.1 mph5.0 kmh 29.83 in1010.2 mb 0.00 in0.0 mm 0.00 in0.0 mm 0.00 in0.0 mm
02:55 PM 52.2°F11.2°C 42.8°F6.0°C 71% 1.3 mph WSW2.1 kmh WSW 2.9 mph4.7 kmh 29.83 in1010.2 mb 0.11 in2.8 mm 1.32 in33.5 mm 0.11 in2.8 mm
03:00 PM 52.0°F11.1°C 42.8°F6.0°C 72% 0.6 mph SW1.0 kmh SW 1.6 mph2.6 kmh 29.83 in1010.2 mb 0.11 in2.8 mm 0.00 in0.0 mm 0.11 in2.8 mm
03:05 PM 52.0°F11.1°C 42.8°F6.0°C 72% 1.0 mph SW1.6 kmh SW 3.1 mph5.0 kmh 29.80 in1009.1 mb 0.11 in2.8 mm 0.00 in0.0 mm 0.11 in2.8 mm
03:10 PM 51.4°F10.8°C 42.8°F6.0°C 72% 1.5 mph SW2.4 kmh SW 3.1 mph5.0 kmh 29.80 in1009.1 mb 0.17 in4.3 mm 0.72 in18.3 mm 0.17 in4.3 mm
03:15 PM 51.3°F10.7°C 42.8°F6.0°C 72% 1.6 mph SSW2.6 kmh SSW 2.7 mph4.3 kmh 29.80 in1009.1 mb 0.17 in4.3 mm 0.00 in0.0 mm 0.17 in4.3 mm
03:20 PM 51.4°F10.8°C 42.8°F6.0°C 73% 1.0 mph SSW1.6 kmh SSW 2.0 mph3.2 kmh 29.80 in1009.1 mb 0.17 in4.3 mm 0.00 in0.0 mm 0.17 in4.3 mm
03:25 PM 51.3°F10.7°C 42.8°F6.0°C 73% 1.2 mph WSW1.9 kmh WSW 2.0 mph3.2 kmh 29.80 in1009.1 mb 0.17 in4.3 mm 0.00 in0.0 mm 0.17 in4.3 mm
03:30 PM 51.3°F10.7°C 42.8°F6.0°C 73% 1.5 mph WSW2.4 kmh WSW 2.5 mph4.0 kmh 29.80 in1009.1 mb 0.17 in4.3 mm 0.00 in0.0 mm 0.17 in4.3 mm
03:35 PM 51.3°F10.7°C 42.8°F6.0°C 72% 1.2 mph SW1.9 kmh SW 2.5 mph4.0 kmh 29.80 in1009.1 mb 0.17 in4.3 mm 0.00 in0.0 mm 0.17 in4.3 mm
03:40 PM 51.4°F10.8°C 42.8°F6.0°C 73% 0.9 mph SW1.4 kmh SW 2.2 mph3.5 kmh 29.80 in1009.1 mb 0.17 in4.3 mm 0.00 in0.0 mm 0.17 in4.3 mm
03:45 PM 51.6°F10.9°C 42.8°F6.0°C 73% 0.7 mph SW1.1 kmh SW 1.6 mph2.6 kmh 29.80 in1009.1 mb 0.17 in4.3 mm 0.00 in0.0 mm 0.17 in4.3 mm
03:50 PM 51.4°F10.8°C 42.8°F6.0°C 73% 0.3 mph SW0.5 kmh SW 1.1 mph1.8 kmh 29.77 in1008.1 mb 0.11 in2.8 mm 0.00 in0.0 mm 0.22 in5.6 mm
03:55 PM 51.6°F10.9°C 42.8°F6.0°C 74% 0.1 mph SW0.2 kmh SW 0.9 mph1.4 kmh 29.77 in1008.1 mb 0.11 in2.8 mm 0.00 in0.0 mm 0.22 in5.6 mm
04:00 PM 51.8°F11.0°C 42.8°F6.0°C 74% 0.3 mph SE0.5 kmh SE 1.1 mph1.8 kmh 29.77 in1008.1 mb 0.11 in2.8 mm 0.00 in0.0 mm 0.22 in5.6 mm
04:05 PM 51.8°F11.0°C 44.6°F7.0°C 75% 0.9 mph SW1.4 kmh SW 2.0 mph3.2 kmh 29.77 in1008.1 mb 0.11 in2.8 mm 0.00 in0.0 mm 0.22 in5.6 mm
04:10 PM 51.4°F10.8°C 42.8°F6.0°C 74% 1.2 mph WSW1.9 kmh WSW 2.5 mph4.0 kmh 29.77 in1008.1 mb 0.06 in1.5 mm 0.00 in0.0 mm 0.22 in5.6 mm
04:15 PM 51.4°F10.8°C 44.6°F7.0°C 75% 0.9 mph W1.4 kmh W 2.5 mph4.0 kmh 29.77 in1008.1 mb 0.06 in1.5 mm 0.00 in0.0 mm 0.22 in5.6 mm
04:20 PM 51.4°F10.8°C 44.6°F7.0°C 75% 0.7 mph WSW1.1 kmh WSW 2.2 mph3.5 kmh 29.77 in1008.1 mb 0.06 in1.5 mm 0.00 in0.0 mm 0.22 in5.6 mm
04:25 PM 51.3°F10.7°C 44.6°F7.0°C 75% 1.4 mph WSW2.3 kmh WSW 4.3 mph6.9 kmh 29.77 in1008.1 mb 0.06 in1.5 mm 0.00 in0.0 mm 0.22 in5.6 mm
04:30 PM 51.6°F10.9°C 44.6°F7.0°C 76% 1.4 mph SW2.3 kmh SW 4.3 mph6.9 kmh 29.77 in1008.1 mb 0.06 in1.5 mm 0.00 in0.0 mm 0.22 in5.6 mm
04:35 PM 51.6°F10.9°C 44.6°F7.0°C 75% 1.5 mph SSW2.4 kmh SSW 4.7 mph7.6 kmh 29.77 in1008.1 mb 0.06 in1.5 mm 0.00 in0.0 mm 0.22 in5.6 mm
04:40 PM 51.6°F10.9°C 44.6°F7.0°C 75% 1.9 mph S3.1 kmh S 4.7 mph7.6 kmh 29.77 in1008.1 mb 0.06 in1.5 mm 0.00 in0.0 mm 0.22 in5.6 mm
04:45 PM 51.6°F10.9°C 44.6°F7.0°C 75% 1.5 mph S2.4 kmh S 4.7 mph7.6 kmh 29.77 in1008.1 mb 0.06 in1.5 mm 0.00 in0.0 mm 0.22 in5.6 mm
04:50 PM 51.8°F11.0°C 44.6°F7.0°C 75% 1.0 mph SSE1.6 kmh SSE 2.0 mph3.2 kmh 29.74 in1007.1 mb 0.00 in0.0 mm 0.00 in0.0 mm 0.22 in5.6 mm
04:55 PM 51.8°F11.0°C 44.6°F7.0°C 76% 0.4 mph SSE0.6 kmh SSE 1.3 mph2.1 kmh 29.74 in1007.1 mb 0.00 in0.0 mm 0.00 in0.0 mm 0.22 in5.6 mm
05:00 PM 51.4°F10.8°C 44.6°F7.0°C 75% 0.4 mph ESE0.6 kmh ESE 2.2 mph3.5 kmh 29.74 in1007.1 mb 0.00 in0.0 mm 0.00 in0.0 mm 0.22 in5.6 mm
05:05 PM 51.6°F10.9°C 44.6°F7.0°C 76% 0.4 mph ESE0.6 kmh ESE 2.2 mph3.5 kmh 29.74 in1007.1 mb 0.00 in0.0 mm 0.00 in0.0 mm 0.22 in5.6 mm
05:10 PM 51.4°F10.8°C 44.6°F7.0°C 76% 0.2 mph SE0.3 kmh SE 1.1 mph1.8 kmh 29.74 in1007.1 mb 0.00 in0.0 mm 0.00 in0.0 mm 0.22 in5.6 mm
05:15 PM 51.4°F10.8°C 44.6°F7.0°C 76% 0.1 mph S0.2 kmh S 1.1 mph1.8 kmh 29.74 in1007.1 mb 0.00 in0.0 mm 0.00 in0.0 mm 0.22 in5.6 mm
05:20 PM 51.4°F10.8°C 44.6°F7.0°C 76% Calm Calm -- 29.74 in1007.1 mb 0.00 in0.0 mm 0.00 in0.0 mm 0.22 in5.6 mm
05:25 PM 51.3°F10.7°C 44.6°F7.0°C 76% Calm Calm -- 29.74 in1007.1 mb 0.00 in0.0 mm 0.00 in0.0 mm 0.22 in5.6 mm
05:30 PM 51.3°F10.7°C 44.6°F7.0°C 76% 0.2 mph N0.3 kmh N 0.9 mph1.4 kmh 29.74 in1007.1 mb 0.00 in0.0 mm 0.00 in0.0 mm 0.22 in5.6 mm
05:35 PM 51.1°F10.6°C 42.8°F6.0°C 76% 0.7 mph NNW1.1 kmh NNW 1.3 mph2.1 kmh 29.74 in1007.1 mb 0.00 in0.0 mm 0.00 in0.0 mm 0.22 in5.6 mm
05:40 PM 51.1°F10.6°C 44.6°F7.0°C 77% 0.5 mph NW0.8 kmh NW 1.3 mph2.1 kmh 29.74 in1007.1 mb 0.00 in0.0 mm 0.00 in0.0 mm 0.22 in5.6 mm
05:45 PM 51.1°F10.6°C 44.6°F7.0°C 77% 0.5 mph WNW0.8 kmh WNW 1.3 mph2.1 kmh 29.74 in1007.1 mb 0.00 in0.0 mm 0.00 in0.0 mm 0.22 in5.6 mm
05:50 PM 50.7°F10.4°C 44.6°F7.0°C 77% 0.6 mph NW1.0 kmh NW 1.3 mph2.1 kmh 29.74 in1007.1 mb 0.00 in0.0 mm 0.00 in0.0 mm 0.22 in5.6 mm
05:55 PM 50.9°F10.5°C 44.6°F7.0°C 77% 0.7 mph NNW1.1 kmh NNW 1.3 mph2.1 kmh 29.71 in1006.1 mb 0.06 in1.5 mm 0.72 in18.3 mm 0.28 in7.1 mm
06:00 PM 50.7°F10.4°C 44.6°F7.0°C 77% 0.7 mph NW1.1 kmh NW 1.3 mph2.1 kmh 29.71 in1006.1 mb 0.06 in1.5 mm 0.00 in0.0 mm 0.28 in7.1 mm
06:05 PM 50.5°F10.3°C 42.8°F6.0°C 77% 0.9 mph NNW1.4 kmh NNW 2.5 mph4.0 kmh 29.71 in1006.1 mb 0.06 in1.5 mm 0.00 in0.0 mm 0.28 in7.1 mm
06:10 PM 50.5°F10.3°C 42.8°F6.0°C 77% 1.3 mph N2.1 kmh N 2.5 mph4.0 kmh 29.71 in1006.1 mb 0.06 in1.5 mm 0.00 in0.0 mm 0.28 in7.1 mm
06:15 PM 50.4°F10.2°C 42.8°F6.0°C 77% 1.3 mph NNW2.1 kmh NNW 2.2 mph3.5 kmh 29.71 in1006.1 mb 0.06 in1.5 mm 0.00 in0.0 mm 0.28 in7.1 mm
06:20 PM 50.2°F10.1°C 42.8°F6.0°C 77% 1.1 mph N1.8 kmh N 1.6 mph2.6 kmh 29.71 in1006.1 mb 0.06 in1.5 mm 0.00 in0.0 mm 0.28 in7.1 mm
06:25 PM 50.0°F10.0°C 42.8°F6.0°C 77% 1.2 mph N1.9 kmh N 1.6 mph2.6 kmh 29.71 in1006.1 mb 0.06 in1.5 mm 0.00 in0.0 mm 0.28 in7.1 mm
06:30 PM 49.8°F9.9°C 42.8°F6.0°C 77% 1.1 mph N1.8 kmh N 1.6 mph2.6 kmh 29.71 in1006.1 mb 0.06 in1.5 mm 0.00 in0.0 mm 0.28 in7.1 mm
06:35 PM 49.8°F9.9°C 42.8°F6.0°C 78% 1.4 mph NNE2.3 kmh NNE 2.9 mph4.7 kmh 29.71 in1006.1 mb 0.06 in1.5 mm 0.00 in0.0 mm 0.28 in7.1 mm
06:40 PM 49.8°F9.9°C 42.8°F6.0°C 78% 1.6 mph NNE2.6 kmh NNE 2.9 mph4.7 kmh 29.71 in1006.1 mb 0.06 in1.5 mm 0.00 in0.0 mm 0.28 in7.1 mm
06:45 PM 49.8°F9.9°C 42.8°F6.0°C 78% 1.0 mph N1.6 kmh N 2.0 mph3.2 kmh 29.71 in1006.1 mb 0.06 in1.5 mm 0.00 in0.0 mm 0.28 in7.1 mm
06:50 PM 49.6°F9.8°C 42.8°F6.0°C 78% 0.8 mph N1.3 kmh N 1.6 mph2.6 kmh 29.71 in1006.1 mb 0.06 in1.5 mm 0.00 in0.0 mm 0.28 in7.1 mm
06:55 PM 49.5°F9.7°C 42.8°F6.0°C 78% 0.8 mph N1.3 kmh N 2.5 mph4.0 kmh 29.71 in1006.1 mb 0.00 in0.0 mm 0.00 in0.0 mm 0.28 in7.1 mm
07:00 PM 49.5°F9.7°C 42.8°F6.0°C 78% 0.8 mph N1.3 kmh N 2.5 mph4.0 kmh 29.71 in1006.1 mb 0.00 in0.0 mm 0.00 in0.0 mm 0.28 in7.1 mm
07:05 PM 49.3°F9.6°C 42.8°F6.0°C 78% 0.6 mph N1.0 kmh N 1.1 mph1.8 kmh 29.71 in1006.1 mb 0.07 in1.8 mm 0.84 in21.3 mm 0.35 in8.9 mm
07:10 PM 49.3°F9.6°C 42.8°F6.0°C 78% 1.2 mph N1.9 kmh N 2.5 mph4.0 kmh 29.71 in1006.1 mb 0.07 in1.8 mm 0.00 in0.0 mm 0.35 in8.9 mm
07:15 PM 49.1°F9.5°C 42.8°F6.0°C 79% 1.4 mph N2.3 kmh N 2.5 mph4.0 kmh 29.71 in1006.1 mb 0.07 in1.8 mm 0.00 in0.0 mm 0.35 in8.9 mm
07:20 PM 48.9°F9.4°C 42.8°F6.0°C 79% 1.1 mph N1.8 kmh N 2.0 mph3.2 kmh 29.71 in1006.1 mb 0.07 in1.8 mm 0.00 in0.0 mm 0.35 in8.9 mm
07:25 PM 48.9°F9.4°C 42.8°F6.0°C 79% 1.5 mph NNE2.4 kmh NNE 3.6 mph5.8 kmh 29.71 in1006.1 mb 0.07 in1.8 mm 0.00 in0.0 mm 0.35 in8.9 mm
07:30 PM 48.7°F9.3°C 42.8°F6.0°C 79% 1.7 mph N2.7 kmh N 3.6 mph5.8 kmh 29.71 in1006.1 mb 0.07 in1.8 mm 0.00 in0.0 mm 0.35 in8.9 mm
07:35 PM 48.7°F9.3°C 42.8°F6.0°C 79% 1.7 mph N2.7 kmh N 2.5 mph4.0 kmh 29.71 in1006.1 mb 0.07 in1.8 mm 0.00 in0.0 mm 0.35 in8.9 mm
07:40 PM 48.6°F9.2°C 42.8°F6.0°C 79% 2.8 mph N4.5 kmh N 4.9 mph7.9 kmh 29.71 in1006.1 mb 0.07 in1.8 mm 0.00 in0.0 mm 0.35 in8.9 mm
07:45 PM 48.4°F9.1°C 42.8°F6.0°C 79% 3.5 mph NNE5.6 kmh NNE 4.9 mph7.9 kmh 29.71 in1006.1 mb 0.13 in3.3 mm 0.72 in18.3 mm 0.41 in10.4 mm
07:50 PM 48.2°F9.0°C 42.8°F6.0°C 79% 3.0 mph NE4.8 kmh NE 4.9 mph7.9 kmh 29.71 in1006.1 mb 0.13 in3.3 mm 0.00 in0.0 mm 0.41 in10.4 mm
07:55 PM 48.0°F8.9°C 42.8°F6.0°C 79% 2.9 mph NNE4.7 kmh NNE 3.8 mph6.1 kmh 29.68 in1005.1 mb 0.13 in3.3 mm 0.00 in0.0 mm 0.41 in10.4 mm
08:00 PM 47.7°F8.7°C 42.8°F6.0°C 79% 3.2 mph NNE5.1 kmh NNE 5.8 mph9.3 kmh 29.68 in1005.1 mb 0.13 in3.3 mm 0.00 in0.0 mm 0.41 in10.4 mm
08:05 PM 47.7°F8.7°C 42.8°F6.0°C 79% 3.0 mph NNE4.8 kmh NNE 5.8 mph9.3 kmh 29.68 in1005.1 mb 0.06 in1.5 mm 0.00 in0.0 mm 0.41 in10.4 mm
08:10 PM 47.5°F8.6°C 41.0°F5.0°C 79% 3.0 mph NE4.8 kmh NE 4.3 mph6.9 kmh 29.68 in1005.1 mb 0.06 in1.5 mm 0.00 in0.0 mm 0.41 in10.4 mm
08:15 PM 47.3°F8.5°C 41.0°F5.0°C 79% 3.4 mph NE5.5 kmh NE 4.3 mph6.9 kmh 29.68 in1005.1 mb 0.06 in1.5 mm 0.00 in0.0 mm 0.41 in10.4 mm
08:20 PM 47.3°F8.5°C 42.8°F6.0°C 80% 3.0 mph NNE4.8 kmh NNE 3.8 mph6.1 kmh 29.68 in1005.1 mb 0.06 in1.5 mm 0.00 in0.0 mm 0.41 in10.4 mm
08:25 PM 47.3°F8.5°C 42.8°F6.0°C 80% 2.5 mph NNE4.0 kmh NNE 3.6 mph5.8 kmh 29.68 in1005.1 mb 0.06 in1.5 mm 0.00 in0.0 mm 0.41 in10.4 mm
08:30 PM 47.3°F8.5°C 42.8°F6.0°C 80% 2.0 mph N3.2 kmh N 2.7 mph4.3 kmh 29.68 in1005.1 mb 0.11 in2.8 mm 0.60 in15.2 mm 0.46 in11.7 mm
08:35 PM 47.3°F8.5°C 42.8°F6.0°C 80% 1.7 mph N2.7 kmh N 2.5 mph4.0 kmh 29.68 in1005.1 mb 0.11 in2.8 mm 0.00 in0.0 mm 0.46 in11.7 mm
08:40 PM 47.1°F8.4°C 41.0°F5.0°C 80% 1.6 mph N2.6 kmh N 2.7 mph4.3 kmh 29.68 in1005.1 mb 0.11 in2.8 mm 0.00 in0.0 mm 0.46 in11.7 mm
08:45 PM 47.1°F8.4°C 41.0°F5.0°C 80% 1.2 mph NNE1.9 kmh NNE 2.7 mph4.3 kmh 29.68 in1005.1 mb 0.06 in1.5 mm 0.00 in0.0 mm 0.46 in11.7 mm
08:50 PM 47.1°F8.4°C 41.0°F5.0°C 81% 1.0 mph NNE1.6 kmh NNE 2.5 mph4.0 kmh 29.68 in1005.1 mb 0.06 in1.5 mm 0.00 in0.0 mm 0.46 in11.7 mm
08:55 PM 47.1°F8.4°C 41.0°F5.0°C 81% 1.1 mph NNE1.8 kmh NNE 3.4 mph5.5 kmh 29.68 in1005.1 mb 0.06 in1.5 mm 0.00 in0.0 mm 0.46 in11.7 mm
09:00 PM 47.1°F8.4°C 41.0°F5.0°C 81% 0.8 mph N1.3 kmh N 3.4 mph5.5 kmh 29.68 in1005.1 mb 0.06 in1.5 mm 0.00 in0.0 mm 0.46 in11.7 mm
09:05 PM 47.1°F8.4°C 41.0°F5.0°C 81% 0.5 mph NW0.8 kmh NW 1.3 mph2.1 kmh 29.68 in1005.1 mb 0.06 in1.5 mm 0.00 in0.0 mm 0.46 in11.7 mm
09:10 PM 46.9°F8.3°C 41.0°F5.0°C 81% 0.7 mph NW1.1 kmh NW 1.1 mph1.8 kmh 29.68 in1005.1 mb 0.06 in1.5 mm 0.00 in0.0 mm 0.46 in11.7 mm
09:15 PM 47.1°F8.4°C 41.0°F5.0°C 81% 0.5 mph NW0.8 kmh NW 1.1 mph1.8 kmh 29.68 in1005.1 mb 0.06 in1.5 mm 0.00 in0.0 mm 0.46 in11.7 mm
09:20 PM 47.1°F8.4°C 41.0°F5.0°C 81% 0.3 mph WNW0.5 kmh WNW 1.1 mph1.8 kmh 29.68 in1005.1 mb 0.06 in1.5 mm 0.00 in0.0 mm 0.46 in11.7 mm
09:25 PM 46.9°F8.3°C 41.0°F5.0°C 81% 0.3 mph W0.5 kmh W 1.6 mph2.6 kmh 29.68 in1005.1 mb 0.06 in1.5 mm 0.00 in0.0 mm 0.46 in11.7 mm
09:30 PM 46.9°F8.3°C 41.0°F5.0°C 81% 0.2 mph W0.3 kmh W 1.6 mph2.6 kmh 29.68 in1005.1 mb 0.00 in0.0 mm 0.00 in0.0 mm 0.46 in11.7 mm
09:35 PM 46.9°F8.3°C 41.0°F5.0°C 81% Calm Calm -- 29.68 in1005.1 mb 0.00 in0.0 mm 0.00 in0.0 mm 0.46 in11.7 mm
09:40 PM 46.9°F8.3°C 41.0°F5.0°C 81% 0.1 mph W0.2 kmh W 0.9 mph1.4 kmh 29.68 in1005.1 mb 0.00 in0.0 mm 0.00 in0.0 mm 0.46 in11.7 mm
09:45 PM 46.8°F8.2°C 41.0°F5.0°C 81% 0.1 mph W0.2 kmh W 0.9 mph1.4 kmh 29.68 in1005.1 mb 0.00 in0.0 mm 0.00 in0.0 mm 0.46 in11.7 mm
09:50 PM 46.8°F8.2°C 41.0°F5.0°C 81% 0.2 mph WSW0.3 kmh WSW 1.1 mph1.8 kmh 29.68 in1005.1 mb 0.00 in0.0 mm 0.00 in0.0 mm 0.46 in11.7 mm
09:55 PM 46.8°F8.2°C 41.0°F5.0°C 81% 0.8 mph WSW1.3 kmh WSW 2.0 mph3.2 kmh 29.68 in1005.1 mb 0.00 in0.0 mm 0.00 in0.0 mm 0.46 in11.7 mm
10:00 PM 46.8°F8.2°C 41.0°F5.0°C 81% 1.1 mph WSW1.8 kmh WSW 2.0 mph3.2 kmh 29.68 in1005.1 mb 0.00 in0.0 mm 0.00 in0.0 mm 0.46 in11.7 mm
10:05 PM 46.8°F8.2°C 41.0°F5.0°C 81% 1.0 mph WSW1.6 kmh WSW 2.0 mph3.2 kmh 29.68 in1005.1 mb 0.00 in0.0 mm 0.00 in0.0 mm 0.46 in11.7 mm
10:10 PM 46.8°F8.2°C 41.0°F5.0°C 81% 1.3 mph WSW2.1 kmh WSW 2.2 mph3.5 kmh 29.68 in1005.1 mb 0.00 in0.0 mm 0.00 in0.0 mm 0.46 in11.7 mm
10:15 PM 46.6°F8.1°C 41.0°F5.0°C 81% 1.4 mph WSW2.3 kmh WSW 2.2 mph3.5 kmh 29.68 in1005.1 mb 0.00 in0.0 mm 0.00 in0.0 mm 0.46 in11.7 mm
10:20 PM 46.4°F8.0°C 41.0°F5.0°C 81% 1.6 mph WSW2.6 kmh WSW 2.9 mph4.7 kmh 29.68 in1005.1 mb 0.00 in0.0 mm 0.00 in0.0 mm 0.46 in11.7 mm
10:25 PM 46.2°F7.9°C 41.0°F5.0°C 80% 1.5 mph WSW2.4 kmh WSW 2.9 mph4.7 kmh 29.68 in1005.1 mb 0.00 in0.0 mm 0.00 in0.0 mm 0.46 in11.7 mm
10:30 PM 46.0°F7.8°C 41.0°F5.0°C 81% 1.3 mph WSW2.1 kmh WSW 2.2 mph3.5 kmh 29.68 in1005.1 mb 0.00 in0.0 mm 0.00 in0.0 mm 0.46 in11.7 mm
10:35 PM 46.0°F7.8°C 41.0°F5.0°C 80% 1.4 mph WSW2.3 kmh WSW 2.2 mph3.5 kmh 29.68 in1005.1 mb 0.00 in0.0 mm 0.00 in0.0 mm 0.46 in11.7 mm
10:40 PM 46.0°F7.8°C 41.0°F5.0°C 81% 1.5 mph WSW2.4 kmh WSW 2.2 mph3.5 kmh 29.71 in1006.1 mb 0.00 in0.0 mm 0.00 in0.0 mm 0.46 in11.7 mm
10:45 PM 45.9°F7.7°C 41.0°F5.0°C 80% 1.7 mph WSW2.7 kmh WSW 2.9 mph4.7 kmh 29.71 in1006.1 mb 0.00 in0.0 mm 0.00 in0.0 mm 0.46 in11.7 mm
10:50 PM 45.9°F7.7°C 41.0°F5.0°C 80% 1.8 mph WSW2.9 kmh WSW 2.9 mph4.7 kmh 29.71 in1006.1 mb 0.00 in0.0 mm 0.00 in0.0 mm 0.46 in11.7 mm
10:55 PM 45.9°F7.7°C 41.0°F5.0°C 80% 1.4 mph W2.3 kmh W 2.7 mph4.3 kmh 29.71 in1006.1 mb 0.00 in0.0 mm 0.00 in0.0 mm 0.46 in11.7 mm
11:00 PM 45.9°F7.7°C 41.0°F5.0°C 80% 1.5 mph WSW2.4 kmh WSW 2.9 mph4.7 kmh 29.71 in1006.1 mb 0.00 in0.0 mm 0.00 in0.0 mm 0.41 in10.4 mm
11:05 PM 45.7°F7.6°C 39.2°F4.0°C 80% 1.7 mph WSW2.7 kmh WSW 2.9 mph4.7 kmh 29.71 in1006.1 mb 0.00 in0.0 mm 0.00 in0.0 mm 0.41 in10.4 mm
11:10 PM 45.7°F7.6°C 39.2°F4.0°C 81% 1.8 mph WSW2.9 kmh WSW 2.5 mph4.0 kmh 29.71 in1006.1 mb 0.00 in0.0 mm 0.00 in0.0 mm 0.41 in10.4 mm
11:15 PM 45.5°F7.5°C 39.2°F4.0°C 80% 1.8 mph WSW2.9 kmh WSW 2.5 mph4.0 kmh 29.71 in1006.1 mb 0.00 in0.0 mm 0.00 in0.0 mm 0.41 in10.4 mm
11:20 PM 45.3°F7.4°C 39.2°F4.0°C 80% 1.9 mph WSW3.1 kmh WSW 3.1 mph5.0 kmh 29.71 in1006.1 mb 0.00 in0.0 mm 0.00 in0.0 mm 0.41 in10.4 mm
11:25 PM 45.1°F7.3°C 39.2°F4.0°C 80% 2.3 mph WSW3.7 kmh WSW 3.4 mph5.5 kmh 29.71 in1006.1 mb 0.00 in0.0 mm 0.00 in0.0 mm 0.41 in10.4 mm
11:30 PM 45.1°F7.3°C 39.2°F4.0°C 80% 2.5 mph WSW4.0 kmh WSW 3.4 mph5.5 kmh 29.71 in1006.1 mb 0.00 in0.0 mm 0.00 in0.0 mm 0.41 in10.4 mm
11:35 PM 45.0°F7.2°C 39.2°F4.0°C 80% 2.7 mph WSW4.3 kmh WSW 3.4 mph5.5 kmh 29.71 in1006.1 mb 0.00 in0.0 mm 0.00 in0.0 mm 0.41 in10.4 mm
11:40 PM 45.0°F7.2°C 39.2°F4.0°C 80% 2.2 mph WSW3.5 kmh WSW 3.4 mph5.5 kmh 29.71 in1006.1 mb 0.00 in0.0 mm 0.00 in0.0 mm 0.41 in10.4 mm
11:45 PM 44.6°F7.0°C 39.2°F4.0°C 80% 2.4 mph WSW3.9 kmh WSW 3.8 mph6.1 kmh 29.71 in1006.1 mb 0.00 in0.0 mm 0.00 in0.0 mm 0.41 in10.4 mm
11:50 PM 44.6°F7.0°C 39.2°F4.0°C 81% 2.6 mph WSW4.2 kmh WSW 3.8 mph6.1 kmh 29.71 in1006.1 mb 0.00 in0.0 mm 0.00 in0.0 mm 0.41 in10.4 mm
11:55 PM 44.4°F6.9°C 39.2°F4.0°C 81% 2.5 mph WSW4.0 kmh WSW 3.8 mph6.1 kmh 29.71 in1006.1 mb 0.00 in0.0 mm 0.00 in0.0 mm 0.41 in10.4 mm